createdAt,value
2019-03-04T00:00:50.930Z,97689.33
2019-03-04T00:03:20.766Z,97681.75
2019-03-04T00:05:50.922Z,97677.31
2019-03-04T00:08:20.759Z,97681.61
2019-03-04T00:10:50.459Z,97686.19
2019-03-04T00:13:20.670Z,97658.75
2019-03-04T00:15:50.406Z,97645.25
2019-03-04T00:18:20.174Z,97625.29
2019-03-04T00:20:50.121Z,97619.90
2019-03-04T00:23:20.087Z,97595.03
2019-03-04T00:25:51.807Z,97605.34
2019-03-04T00:28:19.683Z,97601.94
2019-03-04T00:30:49.484Z,97593.48
2019-03-04T00:33:19.071Z,97596.27
2019-03-04T00:35:49.247Z,97521.91
2019-03-04T00:38:20.006Z,97577.97
2019-03-04T00:40:49.810Z,97582.00
2019-03-04T00:43:19.392Z,97587.45
2019-03-04T00:45:49.352Z,97587.20
2019-03-04T00:48:20.078Z,97599.58
2019-03-04T00:50:50.059Z,97607.54
2019-03-04T00:53:20.914Z,97604.55
2019-03-04T00:55:50.694Z,97623.84
2019-03-04T00:58:20.778Z,97626.88
2019-03-04T01:00:50.536Z,97632.06
2019-03-04T01:03:20.418Z,97597.63
2019-03-04T01:05:50.374Z,97632.87
2019-03-04T01:08:20.991Z,97590.09
2019-03-04T01:10:50.919Z,97620.53
2019-03-04T01:13:21.384Z,97627.58
2019-03-04T01:15:51.229Z,97618.16
2019-03-04T01:18:21.001Z,97594.34
2019-03-04T01:20:50.446Z,97582.42
2019-03-04T01:23:20.305Z,97577.06
2019-03-04T01:25:51.031Z,97574.11
2019-03-04T01:28:21.250Z,97571.81
2019-03-04T01:30:51.090Z,97557.13
2019-03-04T01:33:20.902Z,97566.88
2019-03-04T01:35:50.849Z,97560.78
2019-03-04T01:38:20.579Z,97563.67
2019-03-04T01:40:50.314Z,97552.78
2019-03-04T01:43:20.627Z,97544.81
2019-03-04T01:45:50.589Z,97529.78
2019-03-04T01:48:20.327Z,97526.89
2019-03-04T01:50:49.752Z,97525.89
2019-03-04T01:53:19.662Z,97522.27
2019-03-04T01:55:49.570Z,97503.94
2019-03-04T01:58:19.894Z,97505.47
2019-03-04T02:00:49.846Z,97495.48
2019-03-04T02:03:19.750Z,97495.91
2019-03-04T02:05:49.538Z,97462.23
2019-03-04T02:08:19.804Z,97459.32
2019-03-04T02:10:49.562Z,97465.02
2019-03-04T02:13:19.308Z,97463.13
2019-03-04T02:15:49.542Z,97457.11
2019-03-04T02:18:20.240Z,97444.34
2019-03-04T02:20:50.030Z,97398.68
2019-03-04T02:23:20.032Z,97426.05
2019-03-04T02:26:00.138Z,97418.67
2019-03-04T02:28:31.155Z,97419.91
2019-03-04T02:31:00.967Z,97410.31
2019-03-04T02:33:30.979Z,97396.88
2019-03-04T02:36:00.978Z,97396.35
2019-03-04T02:38:31.614Z,97385.17
2019-03-04T02:41:01.747Z,97377.68
2019-03-04T02:43:31.910Z,97381.56
2019-03-04T02:46:01.755Z,97372.13
2019-03-04T02:48:31.501Z,97365.59
2019-03-04T02:51:02.643Z,97368.08
2019-03-04T02:54:04.328Z,97356.03
2019-03-04T02:56:34.106Z,97365.67
2019-03-04T02:59:04.484Z,97367.53
2019-03-04T03:01:35.261Z,97352.55
2019-03-04T03:04:05.055Z,97359.77
2019-03-04T03:06:34.788Z,97353.52
2019-03-04T03:09:04.973Z,97352.02
2019-03-04T03:11:35.161Z,97350.67
2019-03-04T03:14:04.879Z,97352.86
2019-03-04T03:16:34.102Z,97349.84
2019-03-04T03:19:03.986Z,97330.94
2019-03-04T03:21:33.555Z,97326.30
2019-03-04T03:24:04.308Z,97327.41
2019-03-04T03:26:34.434Z,97332.36
2019-03-04T03:29:04.134Z,97306.46
2019-03-04T03:31:33.961Z,97326.98
2019-03-04T03:34:04.100Z,97318.57
2019-03-04T03:36:33.237Z,97331.39
2019-03-04T03:39:04.020Z,97309.87
2019-03-04T03:41:34.709Z,97294.55
2019-03-04T03:44:04.950Z,97295.41
2019-03-04T03:46:34.698Z,97263.92
2019-03-04T03:49:04.594Z,97262.53
2019-03-04T03:51:35.197Z,97264.17
2019-03-04T03:54:05.326Z,97263.39
2019-03-04T03:56:34.919Z,97270.73
2019-03-04T03:59:04.797Z,97155.31
2019-03-04T04:01:35.854Z,97271.84
2019-03-04T04:04:05.800Z,97258.30
2019-03-04T04:06:36.499Z,97242.00
2019-03-04T04:09:07.564Z,97252.41
2019-03-04T04:11:38.073Z,97242.98
2019-03-04T04:14:07.914Z,97266.23
2019-03-04T04:16:37.922Z,97245.80
2019-03-04T04:19:08.523Z,97198.34
2019-03-04T04:21:38.338Z,97252.86
2019-03-04T04:24:08.326Z,97228.66
2019-03-04T04:26:38.042Z,97242.02
2019-03-04T04:29:10.712Z,97239.52
2019-03-04T04:31:40.603Z,97236.83
2019-03-04T04:34:09.999Z,97228.54
2019-03-04T04:36:39.802Z,97229.72
2019-03-04T04:39:09.585Z,97208.54
2019-03-04T04:41:38.974Z,97195.80
2019-03-04T04:44:08.763Z,97204.87
2019-03-04T04:46:50.061Z,97194.14
2019-03-04T04:49:19.904Z,97186.79
2019-03-04T04:51:50.079Z,97180.20
2019-03-04T04:54:19.758Z,97169.44
2019-03-04T04:56:49.240Z,97159.97
2019-03-04T04:59:19.034Z,97175.17
2019-03-04T05:01:49.322Z,97150.68
2019-03-04T05:04:19.054Z,97147.14
2019-03-04T05:06:48.745Z,97130.80
2019-03-04T05:09:18.327Z,97122.81
2019-03-04T05:11:48.593Z,97120.56
2019-03-04T05:14:19.329Z,97131.11
2019-03-04T05:16:48.531Z,97132.94
2019-03-04T05:19:19.155Z,97101.29
2019-03-04T05:21:49.374Z,97132.96
2019-03-04T05:24:19.115Z,97146.95
2019-03-04T05:26:48.783Z,97136.75
2019-03-04T05:29:18.552Z,97146.28
2019-03-04T05:31:49.056Z,97155.67
2019-03-04T05:34:18.889Z,97161.09
2019-03-04T05:36:48.658Z,97145.48
2019-03-04T05:39:18.592Z,97152.05
2019-03-04T05:41:47.708Z,97044.43
2019-03-04T05:44:18.225Z,97121.84
2019-03-04T05:46:47.342Z,97122.03
2019-03-04T05:49:17.507Z,97123.36
2019-03-04T05:51:47.395Z,97118.16
2019-03-04T05:54:17.006Z,97114.45
2019-03-04T05:56:47.272Z,97088.73
2019-03-04T05:59:19.975Z,97059.20
2019-03-04T06:01:59.895Z,97070.78
2019-03-04T06:04:29.452Z,97076.77
2019-03-04T06:07:05.326Z,97060.84
2019-03-04T06:09:35.622Z,97038.83
2019-03-04T06:12:04.854Z,97016.80
2019-03-04T06:14:34.543Z,97013.28
2019-03-04T06:17:03.945Z,97010.33
2019-03-04T06:19:33.797Z,96990.28
2019-03-04T06:22:03.550Z,96992.06
2019-03-04T06:24:33.044Z,96980.53
2019-03-04T06:27:02.953Z,96975.69
2019-03-04T06:29:32.055Z,96958.66
2019-03-04T06:32:01.555Z,96955.78
2019-03-04T06:34:30.667Z,96963.59
2019-03-04T06:36:59.870Z,96946.34
2019-03-04T06:39:29.927Z,96931.77
2019-03-04T06:41:59.098Z,96930.84
2019-03-04T06:44:28.695Z,96910.42
2019-03-04T06:46:58.746Z,96909.77
2019-03-04T06:49:28.608Z,96904.88
2019-03-04T06:51:58.268Z,96884.87
2019-03-04T06:56:38.787Z,96867.86
2019-03-04T06:59:13.537Z,96861.86
2019-03-04T07:01:48.327Z,96857.34
2019-03-04T07:04:30.932Z,96838.08
2019-03-04T07:07:01.055Z,96787.95
2019-03-04T07:09:30.737Z,96720.95
2019-03-04T07:12:00.584Z,96810.14
2019-03-04T07:14:30.809Z,96822.89
2019-03-04T07:16:59.974Z,96810.60
2019-03-04T07:19:31.298Z,96811.48
2019-03-04T07:22:00.688Z,96809.23
2019-03-04T07:24:29.806Z,96797.28
2019-03-04T07:26:59.477Z,96718.27
2019-03-04T07:29:30.575Z,96825.39
2019-03-04T07:32:00.491Z,96825.36
2019-03-04T07:34:30.387Z,96828.96
2019-03-04T07:36:59.932Z,96845.79
2019-03-04T07:39:29.202Z,96842.70
2019-03-04T07:42:00.114Z,96844.06
2019-03-04T07:44:31.472Z,96857.55
2019-03-04T07:47:00.694Z,96871.38
2019-03-04T07:49:30.250Z,96846.17
2019-03-04T07:51:59.682Z,96879.05
2019-03-04T07:54:30.325Z,96874.70
2019-03-04T07:57:01.078Z,96889.09
2019-03-04T07:59:31.216Z,96889.75
2019-03-04T08:02:00.290Z,96892.75
2019-03-04T08:04:29.987Z,96907.47
2019-03-04T08:07:13.753Z,96906.17
2019-03-04T08:10:00.049Z,96883.75
2019-03-04T08:12:52.847Z,96928.28
2019-03-04T08:15:22.106Z,96929.06
2019-03-04T08:17:51.588Z,96878.14
2019-03-04T08:20:20.763Z,96848.64
2019-03-04T08:22:49.916Z,96817.91
2019-03-04T08:25:19.647Z,96805.83
2019-03-04T08:27:48.796Z,96802.16
2019-03-04T08:30:21.074Z,96778.83
2019-03-04T08:32:50.494Z,96762.65
2019-03-04T08:35:19.811Z,96763.45
2019-03-04T08:37:49.018Z,96745.95
2019-03-04T08:40:19.069Z,96724.94
2019-03-04T08:42:48.470Z,96701.31
2019-03-04T08:45:19.431Z,96701.21
2019-03-04T08:47:48.898Z,96710.16
2019-03-04T08:50:18.822Z,96733.38
2019-03-04T08:52:48.202Z,96740.81
2019-03-04T08:55:18.021Z,96705.31
2019-03-04T08:57:48.130Z,96741.96
2019-03-04T09:00:19.600Z,96753.44
2019-03-04T09:02:49.130Z,96759.30
2019-03-04T09:05:19.031Z,96648.07
2019-03-04T09:07:48.234Z,96709.26
2019-03-04T09:10:20.227Z,96656.67
2019-03-04T09:12:49.801Z,96667.95
2019-03-04T09:15:19.141Z,96678.68
2019-03-04T09:17:48.824Z,96679.84
2019-03-04T09:20:18.921Z,96638.31
2019-03-04T09:22:48.333Z,96724.63
2019-03-04T09:25:30.012Z,96726.69
2019-03-04T09:27:51.796Z,96705.99
2019-03-04T09:30:21.715Z,96717.93
2019-03-04T09:32:51.846Z,96708.79
2019-03-04T09:35:21.365Z,96706.05
2019-03-04T09:37:50.713Z,96723.00
2019-03-04T09:40:20.546Z,96588.58
2019-03-04T09:42:50.602Z,96711.77
2019-03-04T09:45:19.886Z,96704.86
2019-03-04T09:47:49.526Z,96659.45
2019-03-04T09:50:19.518Z,96707.10
2019-03-04T09:52:48.626Z,96699.88
2019-03-04T09:55:18.613Z,96702.47
2019-03-04T09:57:48.008Z,96724.56
2019-03-04T10:00:35.161Z,96716.33
2019-03-04T10:03:14.596Z,96692.45
2019-03-04T10:06:10.491Z,96725.53
2019-03-04T10:09:08.091Z,96742.25
2019-03-04T10:11:46.064Z,96745.06
2019-03-04T10:14:34.802Z,96725.50
2019-03-04T10:17:14.615Z,96758.77
2019-03-04T10:20:11.473Z,96752.84
2019-03-04T10:22:49.903Z,96754.36
2019-03-04T10:26:33.753Z,96771.84
2019-03-04T10:29:13.626Z,96797.19
2019-03-04T10:33:54.496Z,96836.56
2019-03-04T10:38:35.245Z,96891.47
2019-03-04T10:41:20.402Z,96913.50
2019-03-04T10:53:36.645Z,96894.94
2019-03-04T10:56:05.858Z,96857.95
2019-03-04T10:58:35.159Z,96872.00
2019-03-04T11:01:05.078Z,96885.95
2019-03-04T11:03:34.370Z,96872.00
2019-03-04T11:06:04.151Z,96862.39
2019-03-04T11:08:33.816Z,96851.63
2019-03-04T11:11:03.064Z,96852.53
2019-03-04T11:13:32.366Z,96867.23
2019-03-04T11:16:01.967Z,96863.06
2019-03-04T11:18:31.859Z,96852.39
2019-03-04T11:21:01.227Z,96865.31
2019-03-04T11:23:31.027Z,96863.09
2019-03-04T11:26:01.867Z,96848.20
2019-03-04T11:28:31.113Z,96849.25
2019-03-04T11:31:00.863Z,96843.11
2019-03-04T11:33:30.269Z,96708.33
2019-03-04T11:36:00.170Z,96850.65
2019-03-04T11:38:35.704Z,96844.34
2019-03-04T11:41:06.395Z,96843.75
2019-03-04T11:43:35.841Z,96828.62
2019-03-04T11:46:05.719Z,96833.22
2019-03-04T11:48:35.449Z,96821.04
2019-03-04T11:51:05.671Z,96832.16
2019-03-04T11:53:35.032Z,96649.48
2019-03-04T11:56:05.205Z,96820.61
2019-03-04T11:58:34.855Z,96806.85
2019-03-04T12:01:09.341Z,96801.30
2019-03-04T12:03:38.926Z,96805.08
2019-03-04T12:06:08.225Z,96780.56
2019-03-04T12:08:38.066Z,96768.63
2019-03-04T12:11:08.022Z,96800.69
2019-03-04T12:13:37.493Z,96783.75
2019-03-04T12:16:07.274Z,96790.33
2019-03-04T12:18:36.997Z,96776.11
2019-03-04T12:21:06.639Z,96535.46
2019-03-04T12:23:36.074Z,96756.23
2019-03-04T12:26:06.542Z,96749.00
2019-03-04T12:28:35.781Z,96756.80
2019-03-04T12:31:05.129Z,96735.16
2019-03-04T12:33:35.151Z,96683.15
2019-03-04T12:36:04.672Z,96742.58
2019-03-04T12:38:34.022Z,96751.28
2019-03-04T12:41:03.639Z,96724.55
2019-03-04T12:43:32.773Z,96725.05
2019-03-04T12:46:02.174Z,96721.08
2019-03-04T12:48:31.774Z,96682.69
2019-03-04T12:51:01.037Z,96713.25
2019-03-04T12:53:36.991Z,96705.25
2019-03-04T12:56:00.599Z,96687.53
2019-03-04T12:58:30.067Z,96709.45
2019-03-04T13:00:59.515Z,96715.33
2019-03-04T13:03:29.293Z,96719.70
2019-03-04T13:05:58.878Z,96667.12
2019-03-04T13:08:28.202Z,96727.62
2019-03-04T13:10:58.765Z,96719.98
2019-03-04T13:13:28.122Z,96721.19
2019-03-04T13:15:59.268Z,96648.57
2019-03-04T13:18:28.953Z,96718.28
2019-03-04T13:20:58.687Z,96728.64
2019-03-04T13:23:28.185Z,96720.88
2019-03-04T13:25:57.721Z,96712.10
2019-03-04T13:28:27.017Z,96726.70
2019-03-04T13:30:56.606Z,96566.19
2019-03-04T13:33:26.083Z,96711.56
2019-03-04T13:35:55.241Z,96702.72
2019-03-04T13:38:24.737Z,96722.48
2019-03-04T13:40:54.361Z,96700.70
2019-03-04T13:43:24.718Z,96703.31
2019-03-04T13:45:53.862Z,96678.53
2019-03-04T13:48:24.281Z,96703.30
2019-03-04T13:50:53.751Z,96481.97
2019-03-04T13:53:23.075Z,96662.48
2019-03-04T13:55:52.545Z,96682.31
2019-03-04T13:58:21.830Z,96678.77
2019-03-04T14:00:51.262Z,96651.12
2019-03-04T14:03:20.791Z,96716.73
2019-03-04T14:05:49.901Z,96718.64
2019-03-04T14:08:19.833Z,96725.78
2019-03-04T14:10:49.276Z,96730.20
2019-03-04T14:13:18.512Z,96719.99
2019-03-04T14:15:47.685Z,96730.17
2019-03-04T14:18:17.870Z,96726.64
2019-03-04T14:20:47.434Z,96732.38
2019-03-04T14:23:16.671Z,96730.47
2019-03-04T14:25:46.185Z,96731.06
2019-03-04T14:28:15.726Z,96736.53
2019-03-04T14:30:45.042Z,96731.15
2019-03-04T14:33:14.726Z,96737.80
2019-03-04T14:35:43.853Z,96769.47
2019-03-04T14:38:12.985Z,96717.41
2019-03-04T14:40:42.494Z,96765.22
2019-03-04T14:43:11.653Z,96773.09
2019-03-04T14:45:40.876Z,96803.41
2019-03-04T14:48:10.344Z,96799.69
2019-03-04T14:50:40.309Z,96813.73
2019-03-04T14:53:10.556Z,96799.66
2019-03-04T14:55:41.209Z,96795.01
2019-03-04T14:58:10.335Z,96790.31
2019-03-04T15:00:39.994Z,96791.34
2019-03-04T15:03:19.501Z,96720.27
2019-03-04T15:05:40.025Z,96710.73
2019-03-04T15:08:09.597Z,96778.58
2019-03-04T15:10:39.667Z,96708.74
2019-03-04T15:13:10.997Z,96730.45
2019-03-04T15:15:40.331Z,96825.50
2019-03-04T15:18:10.546Z,96785.67
2019-03-04T15:20:39.803Z,96792.31
2019-03-04T15:23:09.498Z,96806.47
2019-03-04T15:25:39.408Z,96808.30
2019-03-04T15:28:14.754Z,96807.37
2019-03-04T15:30:45.417Z,96855.97
2019-03-04T15:33:18.457Z,96820.20
2019-03-04T15:35:45.733Z,96776.80
2019-03-04T15:38:15.344Z,96831.08
2019-03-04T15:40:45.324Z,96842.25
2019-03-04T15:43:14.690Z,96849.01
2019-03-04T15:45:46.677Z,96920.39
2019-03-04T15:48:17.527Z,96871.14
2019-03-04T15:50:46.757Z,96875.08
2019-03-04T15:53:16.923Z,96885.49
2019-03-04T15:55:46.465Z,96893.84
2019-03-04T15:58:15.718Z,96914.17
2019-03-04T16:00:46.352Z,96932.21
2019-03-04T16:03:16.130Z,96971.23
2019-03-04T16:05:46.099Z,97000.34
2019-03-04T16:08:15.275Z,97030.33
2019-03-04T16:10:45.107Z,97037.97
2019-03-04T16:13:16.326Z,97054.77
2019-03-04T16:15:46.685Z,97072.34
2019-03-04T16:18:18.072Z,97090.09
2019-03-04T16:20:47.402Z,97104.48
2019-03-04T16:23:16.716Z,97104.26
2019-03-04T16:25:46.770Z,97101.23
2019-03-04T16:28:18.390Z,97109.66
2019-03-04T16:30:51.035Z,97104.87
2019-03-04T16:33:21.513Z,97058.38
2019-03-04T16:35:51.006Z,97144.71
2019-03-04T16:38:20.616Z,97092.05
2019-03-04T16:40:51.801Z,97090.94
2019-03-04T16:43:22.580Z,97082.64
2019-03-04T16:45:52.670Z,97082.37
2019-03-04T16:48:22.206Z,97089.05
2019-03-04T16:50:51.517Z,97090.17
2019-03-04T16:53:21.164Z,97085.89
2019-03-04T16:55:50.667Z,97083.27
2019-03-04T16:58:19.817Z,97090.30
2019-03-04T17:00:49.319Z,97116.69
2019-03-04T17:03:18.758Z,97127.09
2019-03-04T17:05:48.562Z,97133.86
2019-03-04T17:08:18.175Z,97122.75
2019-03-04T17:10:48.905Z,97156.20
2019-03-04T17:13:18.231Z,97164.12
2019-03-04T17:15:47.541Z,97169.91
2019-03-04T17:18:17.597Z,97172.77
2019-03-04T17:20:46.592Z,97144.80
2019-03-04T17:23:15.945Z,97178.27
2019-03-04T17:25:45.906Z,97159.53
2019-03-04T17:28:15.223Z,97201.86
2019-03-04T17:30:44.742Z,97216.06
2019-03-04T17:33:14.574Z,97201.18
2019-03-04T17:35:43.717Z,97184.65
2019-03-04T17:38:12.878Z,97204.59
2019-03-04T17:40:42.376Z,97210.00
2019-03-04T17:43:11.628Z,97211.00
2019-03-04T17:45:40.849Z,97224.16
2019-03-04T17:48:10.554Z,97127.59
2019-03-04T17:50:40.893Z,97176.36
2019-03-04T17:53:40.444Z,97215.38
2019-03-04T17:56:10.684Z,97219.02
2019-03-04T17:58:40.285Z,97228.07
2019-03-04T18:01:09.591Z,97236.13
2019-03-04T18:03:39.341Z,97232.60
2019-03-04T18:06:08.691Z,97242.92
2019-03-04T18:08:37.869Z,97247.33
2019-03-04T18:11:07.285Z,97173.86
2019-03-04T18:13:36.556Z,97248.91
2019-03-04T18:16:05.978Z,97252.39
2019-03-04T18:18:35.329Z,97204.88
2019-03-04T18:21:04.569Z,97260.63
2019-03-04T18:23:33.862Z,97223.20
2019-03-04T18:26:13.006Z,97272.58
2019-03-04T18:28:57.527Z,97266.99
2019-03-04T18:31:30.700Z,97277.30
2019-03-04T18:36:22.973Z,97285.55
2019-03-04T18:41:09.663Z,97273.66
2019-03-04T18:44:11.243Z,97299.56
2019-03-04T18:48:52.653Z,97309.45
2019-03-04T18:51:23.492Z,97192.31
2019-03-04T18:53:54.778Z,97333.67
2019-03-04T18:56:24.421Z,97340.31
2019-03-04T18:58:53.638Z,97351.47
2019-03-04T19:01:23.250Z,97357.60
2019-03-04T19:03:52.477Z,97356.36
2019-03-04T19:06:21.674Z,97356.36
2019-03-04T19:08:51.309Z,97370.16
2019-03-04T19:11:20.538Z,97368.25
2019-03-04T19:13:50.474Z,97377.79
2019-03-04T19:16:20.128Z,97361.25
2019-03-04T19:18:49.977Z,97386.34
2019-03-04T19:21:19.218Z,97395.02
2019-03-04T19:23:48.869Z,97389.00
2019-03-04T19:26:18.066Z,97397.30
2019-03-04T19:28:47.448Z,97361.39
2019-03-04T19:31:17.143Z,97392.11
2019-03-04T19:33:46.292Z,97403.65
2019-03-04T19:36:15.557Z,97393.62
2019-03-04T19:38:46.367Z,97410.92
2019-03-04T19:41:15.652Z,97416.93
2019-03-04T19:43:45.566Z,97417.52
2019-03-04T19:46:15.129Z,97418.52
2019-03-04T19:48:44.952Z,97355.42
2019-03-04T19:51:14.206Z,97372.76
2019-03-04T19:53:43.835Z,97428.84
2019-03-04T19:56:13.058Z,97421.41
2019-03-04T19:58:42.310Z,97427.31
2019-03-04T20:01:12.958Z,97435.74
2019-03-04T20:03:42.273Z,97429.07
2019-03-04T20:06:11.510Z,97431.44
2019-03-04T20:08:40.917Z,97427.40
2019-03-04T20:11:10.278Z,97429.66
2019-03-04T20:13:39.461Z,97438.28
2019-03-04T20:16:09.865Z,97434.30
2019-03-04T20:18:39.095Z,97434.47
2019-03-04T20:21:08.497Z,97435.87
2019-03-04T20:23:38.305Z,97431.73
2019-03-04T20:26:07.691Z,97443.77
2019-03-04T20:28:38.457Z,97443.15
2019-03-04T20:31:08.141Z,97373.66
2019-03-04T20:33:37.449Z,97438.70
2019-03-04T20:36:06.799Z,97541.94
2019-03-04T20:38:39.594Z,97470.95
2019-03-04T20:41:08.733Z,97473.09
2019-03-04T20:43:38.574Z,97478.36
2019-03-04T20:46:09.585Z,97420.23
2019-03-04T20:48:39.784Z,97480.40
2019-03-04T20:51:09.321Z,97475.61
2019-03-04T20:53:38.522Z,97461.20
2019-03-04T20:56:08.167Z,97481.27
2019-03-04T20:58:37.327Z,97493.05
2019-03-04T21:01:06.789Z,97504.48
2019-03-04T21:03:38.443Z,97494.98
2019-03-04T21:06:05.710Z,97504.92
2019-03-04T21:08:35.868Z,97393.83
2019-03-04T21:11:05.970Z,97314.83
2019-03-04T21:13:36.097Z,97521.34
2019-03-04T21:16:05.197Z,97588.48
2019-03-04T21:18:35.586Z,97338.53
2019-03-04T21:21:07.722Z,97524.68
2019-03-04T21:23:37.375Z,97527.28
2019-03-04T21:26:12.193Z,97412.84
2019-03-04T21:29:00.111Z,97516.13
2019-03-04T21:31:36.261Z,97526.84
2019-03-04T21:34:20.263Z,97538.41
2019-03-04T21:36:58.477Z,97548.44
2019-03-04T21:39:31.403Z,97562.47
2019-03-04T21:42:08.029Z,97557.53
2019-03-04T21:46:56.135Z,97555.77
2019-03-04T21:49:27.048Z,97385.84
2019-03-04T21:52:22.956Z,97578.31
2019-03-04T21:54:52.511Z,97585.06
2019-03-04T21:57:31.769Z,97488.46
2019-03-04T22:00:02.694Z,97602.77
2019-03-04T22:02:36.113Z,97615.30
2019-03-04T22:05:09.674Z,97613.41
2019-03-04T22:07:39.328Z,97614.14
2019-03-04T22:10:10.002Z,97621.69
2019-03-04T22:12:39.441Z,97624.03
2019-03-04T22:15:09.111Z,97619.73
2019-03-04T22:17:38.435Z,97616.44
2019-03-04T22:20:08.963Z,97629.91
2019-03-04T22:22:39.193Z,97627.05
2019-03-04T22:25:09.846Z,97554.52
2019-03-04T22:27:39.048Z,97631.34
2019-03-04T22:30:11.051Z,97614.29
2019-03-04T22:32:40.285Z,97636.69
2019-03-04T22:35:11.206Z,97581.41
2019-03-04T22:37:40.348Z,97596.06
2019-03-04T22:40:13.415Z,97603.94
2019-03-04T22:42:43.162Z,97628.00
2019-03-04T22:45:15.692Z,97627.00
2019-03-04T22:47:45.133Z,97614.20
2019-03-04T22:50:15.296Z,97620.00
2019-03-04T22:52:44.450Z,97613.71
2019-03-04T22:55:16.282Z,97569.11
2019-03-04T22:57:45.978Z,97461.86
2019-03-04T23:00:27.161Z,97562.19
2019-03-04T23:02:57.416Z,97475.45
2019-03-04T23:05:26.757Z,97617.16
2019-03-04T23:22:32.687Z,97532.03
2019-03-04T23:25:02.619Z,97616.77
2019-03-04T23:27:32.207Z,97625.43
2019-03-04T23:30:01.666Z,97505.11
2019-03-04T23:32:30.937Z,97612.45
2019-03-04T23:35:00.498Z,97612.84
2019-03-04T23:37:29.657Z,97606.88
2019-03-04T23:40:00.891Z,97512.63
2019-03-04T23:42:31.096Z,97596.44
2019-03-04T23:45:00.355Z,97531.45
2019-03-04T23:47:29.572Z,97641.23
2019-03-04T23:50:21.352Z,97569.41
2019-03-04T23:52:51.110Z,97564.28
2019-03-04T23:55:20.653Z,97570.34
2019-03-04T23:57:49.741Z,97564.70
